createdAt,value
2022-11-21T00:03:18.898Z,5.20
2022-11-21T00:07:21.983Z,5.20
2022-11-21T00:11:25.136Z,5.20
2022-11-21T00:15:28.163Z,5.20
2022-11-21T00:20:07.103Z,5.20
2022-11-21T00:24:11.575Z,5.20
2022-11-21T00:28:14.674Z,5.30
2022-11-21T00:32:17.746Z,5.30
2022-11-21T00:36:56.312Z,5.30
2022-11-21T00:40:59.342Z,5.40
2022-11-21T00:45:02.395Z,5.40
2022-11-21T00:49:38.950Z,5.40
2022-11-21T00:53:43.787Z,5.50
2022-11-21T00:57:46.835Z,5.50
2022-11-21T01:02:29.312Z,5.50
2022-11-21T01:06:32.375Z,5.50
2022-11-21T01:10:37.572Z,5.60
2022-11-21T01:14:40.642Z,5.60
2022-11-21T01:19:08.251Z,5.60
2022-11-21T01:23:11.359Z,5.60
2022-11-21T01:27:15.840Z,5.70
2022-11-21T01:31:21.452Z,5.70
2022-11-21T01:35:25.814Z,5.70
2022-11-21T01:39:28.864Z,5.70
2022-11-21T01:44:05.554Z,5.80
2022-11-21T01:48:09.990Z,5.70
2022-11-21T01:52:18.184Z,5.70
2022-11-21T01:56:22.186Z,5.70
2022-11-21T02:00:58.788Z,5.60
2022-11-21T02:05:04.755Z,5.50
2022-11-21T02:09:40.143Z,5.50
2022-11-21T02:13:43.165Z,5.50
2022-11-21T02:17:46.408Z,5.50
2022-11-21T02:21:59.204Z,5.60
2022-11-21T02:26:28.454Z,5.50
2022-11-21T02:30:33.073Z,5.60
2022-11-21T02:34:36.112Z,5.60
2022-11-21T02:38:40.061Z,5.60
2022-11-21T02:43:20.428Z,5.60
2022-11-21T02:47:24.285Z,5.60
2022-11-21T02:51:27.321Z,5.70
2022-11-21T02:55:30.612Z,5.70
2022-11-21T02:59:35.116Z,5.70
2022-11-21T03:03:38.220Z,5.70
2022-11-21T03:08:14.780Z,5.70
2022-11-21T03:12:17.891Z,5.70
2022-11-21T03:16:22.374Z,5.60
2022-11-21T03:20:25.391Z,5.60
2022-11-21T03:24:28.732Z,5.50
2022-11-21T03:29:05.907Z,5.50
2022-11-21T03:33:10.334Z,5.50
2022-11-21T03:37:13.359Z,5.60
2022-11-21T03:41:36.339Z,5.60
2022-11-21T03:45:51.849Z,5.60
2022-11-21T03:49:56.329Z,5.60
2022-11-21T03:53:59.664Z,5.60
2022-11-21T03:58:03.079Z,5.70
2022-11-21T04:02:39.824Z,5.70
2022-11-21T04:06:44.279Z,5.70
2022-11-21T04:10:49.014Z,5.80
2022-11-21T04:14:52.052Z,5.80
2022-11-21T04:19:28.931Z,5.80
2022-11-21T04:23:33.848Z,5.70
2022-11-21T04:27:36.904Z,5.70
2022-11-21T04:31:39.989Z,5.70
2022-11-21T04:36:04.960Z,5.70
2022-11-21T04:40:10.439Z,5.70
2022-11-21T04:44:13.476Z,5.70
2022-11-21T04:48:50.402Z,5.70
2022-11-21T04:52:55.143Z,5.50
2022-11-21T04:56:59.557Z,5.50
2022-11-21T05:01:36.866Z,5.40
2022-11-21T05:06:10.839Z,5.30
2022-11-21T05:11:01.394Z,5.40
2022-11-21T05:15:06.488Z,5.40
2022-11-21T05:19:40.070Z,5.50
2022-11-21T05:24:17.021Z,5.50
2022-11-21T05:28:20.076Z,5.60
2022-11-21T05:32:24.827Z,5.60
2022-11-21T05:37:01.496Z,5.60
2022-11-21T05:41:44.337Z,5.50
2022-11-21T05:46:19.159Z,5.50
2022-11-21T05:50:54.555Z,5.50
2022-11-21T05:55:19.396Z,5.50
2022-11-21T05:59:56.202Z,5.50
2022-11-21T06:04:33.311Z,5.50
2022-11-21T06:09:10.237Z,5.50
2022-11-21T06:13:48.612Z,5.50
2022-11-21T06:18:23.514Z,5.50
2022-11-21T06:22:57.079Z,5.40
2022-11-21T06:27:34.152Z,5.40
2022-11-21T06:31:38.684Z,5.30
2022-11-21T06:36:07.876Z,5.30
2022-11-21T06:40:41.997Z,5.20
2022-11-21T06:45:19.024Z,5.20
2022-11-21T06:49:58.297Z,5.10
2022-11-21T06:54:32.091Z,5.00
2022-11-21T06:59:09.145Z,5.00
2022-11-21T07:03:46.455Z,5.00
2022-11-21T07:08:24.816Z,5.10
2022-11-21T07:13:16.235Z,5.10
2022-11-21T07:17:34.689Z,5.20
2022-11-21T07:22:11.710Z,5.20
2022-11-21T07:26:50.340Z,5.30
2022-11-21T07:31:24.089Z,5.40
2022-11-21T07:36:00.945Z,5.50
2022-11-21T07:40:37.719Z,5.70
2022-11-21T07:45:14.558Z,5.80
2022-11-21T07:49:52.724Z,5.90
2022-11-21T07:54:26.670Z,5.90
2022-11-21T07:59:03.541Z,6.00
2022-11-21T08:03:40.746Z,6.00
2022-11-21T08:08:18.986Z,5.80
2022-11-21T08:12:52.963Z,5.80
2022-11-21T08:17:29.625Z,5.80
2022-11-21T08:22:06.566Z,5.70
2022-11-21T08:26:45.083Z,5.80
2022-11-21T08:31:18.758Z,5.90
2022-11-21T08:35:55.565Z,6.00
2022-11-21T08:40:32.772Z,6.20
2022-11-21T08:45:09.020Z,6.40
2022-11-21T08:49:42.863Z,6.80
2022-11-21T08:54:16.959Z,7.10
2022-11-21T08:58:53.756Z,7.30
2022-11-21T09:03:32.338Z,7.50
2022-11-21T09:08:09.519Z,7.50
2022-11-21T09:12:46.555Z,7.40
2022-11-21T09:17:40.710Z,7.30
2022-11-21T09:22:00.659Z,7.20
2022-11-21T09:26:34.672Z,7.10
2022-11-21T09:31:11.819Z,7.10
2022-11-21T09:35:48.892Z,7.20
2022-11-21T09:40:27.862Z,7.20
2022-11-21T09:45:01.639Z,7.20
2022-11-21T09:49:43.020Z,7.30
2022-11-21T09:54:19.754Z,7.50
2022-11-21T09:59:00.073Z,7.80
2022-11-21T10:03:32.071Z,8.00
2022-11-21T10:08:09.371Z,8.00
2022-11-21T10:12:49.118Z,8.00
2022-11-21T10:17:19.746Z,7.90
2022-11-21T10:21:44.927Z,7.70
2022-11-21T10:26:14.690Z,7.50
2022-11-21T10:30:36.964Z,7.50
2022-11-21T10:34:40.272Z,7.90
2022-11-21T10:39:18.981Z,8.20
2022-11-21T10:44:09.969Z,8.30
2022-11-21T10:48:25.105Z,8.50
2022-11-21T10:53:28.785Z,8.60
2022-11-21T10:58:26.762Z,8.90
2022-11-21T11:03:07.085Z,9.30
2022-11-21T11:07:25.135Z,9.40
2022-11-21T11:11:58.987Z,9.50
2022-11-21T11:16:41.409Z,9.30
2022-11-21T11:21:15.574Z,9.10
2022-11-21T11:25:49.965Z,8.90
2022-11-21T11:30:27.654Z,8.60
2022-11-21T11:34:40.372Z,8.60
2022-11-21T11:39:11.093Z,8.70
2022-11-21T11:43:59.077Z,8.80
2022-11-21T11:48:20.084Z,8.80
2022-11-21T11:52:54.013Z,8.80
2022-11-21T11:57:33.716Z,8.90
2022-11-21T12:01:41.222Z,8.90
2022-11-21T12:06:14.952Z,9.00
2022-11-21T12:11:09.367Z,9.10
2022-11-21T12:15:52.947Z,9.30
2022-11-21T12:20:15.027Z,9.30
2022-11-21T12:24:43.355Z,9.30
2022-11-21T12:29:25.343Z,9.20
2022-11-21T12:34:02.945Z,9.30
2022-11-21T12:38:44.681Z,9.20
2022-11-21T12:43:20.020Z,8.90
2022-11-21T12:48:26.200Z,8.70
2022-11-21T12:53:20.545Z,8.50
2022-11-21T12:57:56.246Z,8.60
2022-11-21T13:02:29.950Z,9.10
2022-11-21T13:06:56.826Z,9.30
2022-11-21T13:11:52.111Z,9.60
2022-11-21T13:16:13.024Z,9.80
2022-11-21T13:20:47.970Z,9.90
2022-11-21T13:25:21.551Z,9.90
2022-11-21T13:30:15.145Z,9.90
2022-11-21T13:34:38.712Z,9.70
2022-11-21T13:39:36.455Z,9.40
2022-11-21T13:44:18.227Z,9.20
2022-11-21T13:48:58.535Z,9.10
2022-11-21T13:53:45.932Z,9.10
2022-11-21T13:58:19.622Z,9.20
2022-11-21T14:02:56.218Z,9.20
2022-11-21T14:07:29.217Z,9.10
2022-11-21T14:11:37.779Z,9.00
2022-11-21T14:16:17.768Z,8.80
2022-11-21T14:20:50.954Z,8.70
2022-11-21T14:24:56.010Z,8.60
2022-11-21T14:29:40.029Z,8.40
2022-11-21T14:34:04.355Z,8.20
2022-11-21T14:39:34.791Z,8.10
2022-11-21T14:43:39.952Z,8.00
2022-11-21T14:47:49.940Z,8.00
2022-11-21T14:51:59.185Z,7.80
2022-11-21T14:56:27.432Z,7.60
2022-11-21T15:05:01.364Z,7.20
2022-11-21T15:10:26.113Z,6.90
2022-11-21T15:14:14.911Z,6.70
2022-11-21T15:18:30.158Z,6.30
2022-11-21T15:22:57.649Z,5.90
2022-11-21T15:27:33.275Z,5.50
2022-11-21T15:32:07.289Z,5.30
2022-11-21T15:36:44.390Z,5.00
2022-11-21T15:41:42.372Z,4.70
2022-11-21T15:46:22.135Z,4.50
2022-11-21T15:50:58.938Z,4.20
2022-11-21T15:55:02.264Z,4.00
2022-11-21T15:59:39.718Z,3.90
2022-11-21T16:04:15.362Z,3.80
2022-11-21T16:08:49.198Z,3.70
2022-11-21T16:13:26.052Z,3.60
2022-11-21T16:17:29.187Z,3.50
2022-11-21T16:22:07.410Z,3.40
2022-11-21T16:26:42.248Z,3.20
2022-11-21T16:31:19.708Z,3.00
2022-11-21T16:35:57.087Z,2.90
2022-11-21T16:40:54.864Z,2.80
2022-11-21T16:45:33.574Z,2.90
2022-11-21T16:50:07.826Z,2.90
2022-11-21T16:54:41.593Z,2.90
2022-11-21T16:59:18.530Z,2.90
2022-11-21T17:03:56.907Z,3.00
2022-11-21T17:07:59.926Z,3.00
2022-11-21T17:12:02.957Z,2.90
2022-11-21T17:16:41.661Z,2.70
2022-11-21T17:21:15.159Z,2.60
2022-11-21T17:25:19.664Z,2.50
2022-11-21T17:29:22.751Z,2.40
2022-11-21T17:33:59.315Z,2.20
2022-11-21T17:38:36.220Z,2.00
2022-11-21T17:43:14.837Z,2.10
2022-11-21T17:47:17.872Z,2.40
2022-11-21T17:51:56.529Z,2.60
2022-11-21T17:56:28.755Z,2.80
2022-11-21T18:01:05.519Z,3.00
2022-11-21T18:05:39.452Z,3.20
2022-11-21T18:10:41.690Z,3.30
2022-11-21T18:15:16.160Z,3.40
2022-11-21T18:19:54.401Z,3.50
2022-11-21T18:24:29.111Z,3.50
2022-11-21T18:28:32.598Z,3.50
2022-11-21T18:32:35.696Z,3.50
2022-11-21T18:36:40.128Z,3.50
2022-11-21T18:41:14.551Z,3.50
2022-11-21T18:45:48.218Z,3.50
2022-11-21T18:50:24.994Z,3.40
2022-11-21T18:55:03.177Z,3.30
2022-11-21T18:59:37.146Z,3.30
2022-11-21T19:04:14.288Z,3.30
2022-11-21T19:08:52.260Z,3.20
2022-11-21T19:13:29.340Z,3.20
2022-11-21T19:18:03.688Z,3.20
2022-11-21T19:22:40.480Z,3.10
2022-11-21T19:27:17.121Z,3.10
2022-11-21T19:31:55.898Z,3.10
2022-11-21T19:36:29.959Z,3.10
2022-11-21T19:41:20.069Z,3.10
2022-11-21T19:45:41.926Z,3.10
2022-11-21T19:50:20.290Z,3.10
2022-11-21T19:54:57.342Z,3.20
2022-11-21T19:59:33.726Z,3.20
2022-11-21T20:04:12.136Z,3.30
2022-11-21T20:08:49.695Z,3.30
2022-11-21T20:13:23.245Z,3.40
2022-11-21T20:17:26.303Z,3.50
2022-11-21T20:21:29.851Z,3.60
2022-11-21T20:26:05.898Z,3.60
2022-11-21T20:30:09.617Z,3.70
2022-11-21T20:34:46.350Z,3.70
2022-11-21T20:38:52.179Z,3.80
2022-11-21T20:44:02.721Z,3.80
2022-11-21T20:48:41.071Z,3.90
2022-11-21T20:53:50.874Z,3.90
2022-11-21T20:57:49.728Z,3.90
2022-11-21T21:02:27.793Z,4.00
2022-11-21T21:06:30.809Z,4.00
2022-11-21T21:10:57.967Z,4.00
2022-11-21T21:14:56.937Z,4.10
2022-11-21T21:19:04.114Z,4.10
2022-11-21T21:23:07.124Z,4.10
2022-11-21T21:27:14.219Z,4.10
2022-11-21T21:31:18.725Z,4.00
2022-11-21T21:35:54.207Z,4.00
2022-11-21T21:39:57.558Z,3.90
2022-11-21T21:44:00.567Z,3.90
2022-11-21T21:48:03.594Z,3.90
2022-11-21T21:52:08.259Z,3.90
2022-11-21T21:56:42.499Z,4.00
2022-11-21T22:00:45.505Z,4.00
2022-11-21T22:04:51.987Z,4.00
2022-11-21T22:08:57.442Z,4.00
2022-11-21T22:13:00.682Z,4.00
2022-11-21T22:17:03.806Z,4.00
2022-11-21T22:21:14.471Z,4.00
2022-11-21T22:25:18.945Z,4.00
2022-11-21T22:29:21.931Z,4.10
2022-11-21T22:33:58.645Z,4.00
2022-11-21T22:38:02.305Z,4.00
2022-11-21T22:42:06.929Z,4.00
2022-11-21T22:46:11.918Z,4.00
2022-11-21T22:50:45.893Z,4.00
2022-11-21T22:54:48.941Z,4.00
2022-11-21T22:58:53.760Z,4.00
2022-11-21T23:02:56.771Z,4.00
2022-11-21T23:06:59.766Z,4.00
2022-11-21T23:11:40.636Z,4.00
2022-11-21T23:15:45.793Z,4.00
2022-11-21T23:19:48.861Z,4.00
2022-11-21T23:23:51.938Z,4.00
2022-11-21T23:27:55.035Z,4.00
2022-11-21T23:31:59.508Z,4.00
2022-11-21T23:36:33.789Z,4.00
2022-11-21T23:40:36.936Z,3.90
2022-11-21T23:44:40.288Z,3.90
2022-11-21T23:48:44.704Z,3.90
2022-11-21T23:52:48.020Z,3.90
2022-11-21T23:56:51.132Z,3.80
